createdAt,value
2019-03-01T00:02:00.229Z,60.57
2019-03-01T00:04:59.410Z,60.43
2019-03-01T00:08:04.734Z,60.40
2019-03-01T00:10:59.560Z,61.79
2019-03-01T00:13:55.670Z,62.00
2019-03-01T00:16:57.372Z,62.64
2019-03-01T00:20:05.163Z,59.02
2019-03-01T00:23:28.620Z,61.78
2019-03-01T00:26:38.710Z,59.48
2019-03-01T00:29:24.293Z,58.47
2019-03-01T00:32:15.141Z,58.59
2019-03-01T00:35:26.134Z,61.43
2019-03-01T00:38:38.312Z,61.16
2019-03-01T00:41:18.891Z,61.59
2019-03-01T00:44:27.984Z,65.83
2019-03-01T00:46:55.511Z,61.36
2019-03-01T00:49:22.992Z,63.98
2019-03-01T00:51:50.495Z,64.16
2019-03-01T00:54:18.020Z,65.46
2019-03-01T00:56:45.453Z,66.77
2019-03-01T00:59:12.914Z,67.42
2019-03-01T01:01:40.449Z,66.52
2019-03-01T01:04:07.934Z,67.96
2019-03-01T01:06:35.450Z,68.96
2019-03-01T01:09:04.102Z,70.37
2019-03-01T01:11:31.556Z,71.17
2019-03-01T01:13:59.014Z,72.00
2019-03-01T01:16:27.110Z,71.09
2019-03-01T01:18:54.624Z,69.80
2019-03-01T01:21:22.099Z,67.02
2019-03-01T01:23:49.562Z,70.38
2019-03-01T01:26:17.171Z,71.14
2019-03-01T01:28:45.030Z,69.81
2019-03-01T01:31:12.530Z,69.75
2019-03-01T01:33:39.991Z,68.28
2019-03-01T01:36:07.470Z,67.26
2019-03-01T01:38:34.967Z,69.45
2019-03-01T01:41:02.942Z,68.58
2019-03-01T01:43:31.250Z,67.23
2019-03-01T01:45:58.775Z,67.53
2019-03-01T01:48:26.253Z,67.60
2019-03-01T01:50:53.750Z,69.07
2019-03-01T01:53:21.217Z,69.16
2019-03-01T01:55:48.670Z,66.82
2019-03-01T01:58:16.170Z,66.41
2019-03-01T02:00:43.743Z,71.23
2019-03-01T02:03:11.368Z,69.07
2019-03-01T02:05:38.833Z,69.69
2019-03-01T02:08:06.412Z,71.15
2019-03-01T02:10:35.710Z,70.06
2019-03-01T02:13:03.190Z,70.11
2019-03-01T02:15:30.810Z,71.87
2019-03-01T02:17:58.290Z,73.14
2019-03-01T02:20:25.801Z,73.93
2019-03-01T02:22:53.230Z,73.93
2019-03-01T02:25:20.813Z,71.38
2019-03-01T02:27:48.250Z,70.17
2019-03-01T02:30:18.331Z,70.98
2019-03-01T02:32:47.438Z,71.50
2019-03-01T02:35:16.991Z,71.62
2019-03-01T02:37:44.438Z,71.43
2019-03-01T02:40:12.599Z,71.28
2019-03-01T02:42:40.062Z,71.79
2019-03-01T02:45:09.505Z,72.47
2019-03-01T02:47:36.981Z,72.85
2019-03-01T02:50:05.251Z,73.24
2019-03-01T02:52:32.731Z,72.71
2019-03-01T02:55:00.513Z,72.80
2019-03-01T02:57:28.172Z,73.36
2019-03-01T02:59:55.591Z,75.61
2019-03-01T03:02:23.015Z,76.22
2019-03-01T03:04:50.511Z,74.93
2019-03-01T03:07:26.926Z,72.50
2019-03-01T03:09:54.530Z,72.81
2019-03-01T03:12:21.963Z,74.08
2019-03-01T03:14:49.431Z,75.02
2019-03-01T03:17:16.870Z,76.38
2019-03-01T03:19:44.312Z,75.91
2019-03-01T03:22:11.796Z,74.79
2019-03-01T03:24:39.262Z,74.79
2019-03-01T03:27:06.742Z,74.09
2019-03-01T03:29:34.197Z,74.36
2019-03-01T03:32:01.711Z,75.15
2019-03-01T03:34:29.191Z,74.84
2019-03-01T03:36:56.690Z,75.02
2019-03-01T03:39:24.194Z,74.56
2019-03-01T03:41:53.886Z,74.80
2019-03-01T03:44:21.376Z,74.39
2019-03-01T03:46:48.793Z,75.82
2019-03-01T03:49:16.311Z,76.06
2019-03-01T03:51:44.563Z,75.19
2019-03-01T03:54:12.091Z,75.11
2019-03-01T03:56:39.749Z,75.80
2019-03-01T03:59:07.490Z,75.38
2019-03-01T04:01:34.930Z,75.80
2019-03-01T04:04:02.459Z,76.13
2019-03-01T04:06:30.113Z,75.70
2019-03-01T04:08:57.594Z,75.49
2019-03-01T04:11:25.233Z,75.29
2019-03-01T04:13:52.689Z,74.96
2019-03-01T04:16:20.196Z,76.07
2019-03-01T04:18:47.651Z,75.60
2019-03-01T04:21:15.771Z,74.12
2019-03-01T04:23:43.233Z,75.51
2019-03-01T04:26:10.734Z,74.89
2019-03-01T04:28:38.262Z,74.70
2019-03-01T04:31:06.210Z,75.17
2019-03-01T04:33:33.679Z,75.24
2019-03-01T04:36:01.296Z,75.37
2019-03-01T04:38:28.850Z,76.05
2019-03-01T04:40:56.381Z,76.32
2019-03-01T04:43:23.910Z,76.89
2019-03-01T04:45:51.493Z,77.17
2019-03-01T04:48:18.962Z,76.87
2019-03-01T04:50:46.435Z,77.54
2019-03-01T04:53:14.009Z,77.84
2019-03-01T04:55:41.525Z,77.59
2019-03-01T04:58:09.095Z,74.60
2019-03-01T05:00:36.650Z,73.19
2019-03-01T05:03:04.289Z,74.12
2019-03-01T05:05:31.903Z,74.33
2019-03-01T05:07:59.462Z,73.54
2019-03-01T05:10:26.982Z,73.77
2019-03-01T05:12:54.499Z,74.17
2019-03-01T05:15:22.574Z,74.00
2019-03-01T05:17:50.170Z,73.95
2019-03-01T05:20:17.683Z,74.09
2019-03-01T05:22:45.184Z,74.03
2019-03-01T05:25:12.857Z,75.87
2019-03-01T05:27:41.009Z,77.05
2019-03-01T05:30:09.963Z,77.51
2019-03-01T05:32:37.503Z,75.77
2019-03-01T05:35:05.651Z,75.28
2019-03-01T05:37:33.149Z,75.73
2019-03-01T05:40:00.669Z,76.95
2019-03-01T05:42:28.164Z,77.41
2019-03-01T05:44:55.675Z,76.37
2019-03-01T05:47:23.310Z,75.00
2019-03-01T05:49:50.811Z,74.28
2019-03-01T05:52:18.316Z,74.64
2019-03-01T05:54:45.817Z,76.62
2019-03-01T05:57:13.292Z,77.46
2019-03-01T05:59:40.830Z,76.85
2019-03-01T06:02:59.082Z,75.65
2019-03-01T06:05:38.256Z,75.75
2019-03-01T06:08:40.851Z,76.03
2019-03-01T06:11:22.140Z,75.61
2019-03-01T06:14:33.993Z,74.50
2019-03-01T06:17:51.450Z,75.76
2019-03-01T06:20:52.920Z,76.31
2019-03-01T06:23:48.697Z,74.49
2019-03-01T06:27:07.950Z,74.41
2019-03-01T06:30:18.552Z,72.33
2019-03-01T06:33:26.703Z,72.70
2019-03-01T06:36:25.296Z,72.23
2019-03-01T06:39:50.691Z,72.12
2019-03-01T06:43:14.567Z,72.67
2019-03-01T06:46:31.657Z,74.96
2019-03-01T06:49:24.873Z,75.47
2019-03-01T06:51:52.407Z,75.34
2019-03-01T06:54:19.912Z,74.14
2019-03-01T06:56:47.423Z,74.36
2019-03-01T06:59:14.905Z,73.99
2019-03-01T07:01:44.192Z,73.67
2019-03-01T07:04:15.697Z,73.29
2019-03-01T07:06:43.235Z,73.78
2019-03-01T07:09:10.713Z,74.28
2019-03-01T07:11:38.409Z,74.63
2019-03-01T07:14:05.828Z,74.47
2019-03-01T07:16:33.305Z,74.39
2019-03-01T07:19:00.798Z,75.82
2019-03-01T07:21:28.289Z,74.93
2019-03-01T07:23:55.845Z,75.27
2019-03-01T07:26:23.346Z,75.56
2019-03-01T07:28:50.864Z,74.15
2019-03-01T07:31:18.321Z,72.82
2019-03-01T07:33:45.789Z,73.03
2019-03-01T07:36:13.288Z,74.29
2019-03-01T07:38:40.799Z,74.59
2019-03-01T07:41:08.236Z,74.50
2019-03-01T07:43:35.647Z,71.36
2019-03-01T07:46:03.116Z,72.38
2019-03-01T07:48:30.592Z,73.76
2019-03-01T07:50:58.073Z,73.12
2019-03-01T07:53:25.495Z,72.80
2019-03-01T07:55:52.930Z,72.82
2019-03-01T07:58:21.588Z,73.07
2019-03-01T08:00:53.316Z,73.27
2019-03-01T08:03:18.638Z,72.92
2019-03-01T08:05:46.125Z,72.73
2019-03-01T08:08:13.625Z,71.84
2019-03-01T08:10:41.105Z,71.58
2019-03-01T08:13:08.568Z,71.70
2019-03-01T08:15:36.091Z,72.12
2019-03-01T08:18:04.767Z,72.69
2019-03-01T08:20:33.814Z,72.96
2019-03-01T08:23:02.040Z,71.90
2019-03-01T08:25:29.855Z,71.27
2019-03-01T08:27:57.281Z,71.42
2019-03-01T08:30:24.794Z,71.10
2019-03-01T08:32:52.236Z,70.96
2019-03-01T08:35:19.691Z,71.17
2019-03-01T08:37:50.005Z,70.69
2019-03-01T08:40:17.278Z,70.96
2019-03-01T08:42:44.755Z,70.39
2019-03-01T08:45:14.046Z,70.31
2019-03-01T08:47:41.578Z,70.07
2019-03-01T08:50:11.466Z,70.42
2019-03-01T08:52:40.399Z,69.86
2019-03-01T08:55:09.352Z,69.65
2019-03-01T08:57:43.998Z,69.55
2019-03-01T09:00:13.587Z,69.40
2019-03-01T09:02:41.187Z,69.52
2019-03-01T09:05:09.958Z,69.58
2019-03-01T09:07:37.369Z,70.63
2019-03-01T09:10:06.146Z,70.82
2019-03-01T09:12:33.547Z,70.73
2019-03-01T09:15:01.029Z,70.95
2019-03-01T09:17:28.424Z,71.03
2019-03-01T09:19:57.170Z,70.46
2019-03-01T09:22:28.033Z,69.31
2019-03-01T09:24:54.099Z,68.83
2019-03-01T09:27:22.761Z,68.93
2019-03-01T09:29:50.323Z,69.61
2019-03-01T09:32:17.900Z,69.39
2019-03-01T09:34:47.997Z,68.83
2019-03-01T09:37:15.425Z,68.53
2019-03-01T09:39:42.925Z,67.50
2019-03-01T09:42:12.459Z,67.00
2019-03-01T09:44:39.681Z,67.50
2019-03-01T09:47:09.170Z,67.67
2019-03-01T09:49:36.652Z,67.46
2019-03-01T09:52:05.973Z,65.47
2019-03-01T09:54:33.459Z,65.23
2019-03-01T09:57:01.036Z,65.62
2019-03-01T09:59:28.587Z,65.09
2019-03-01T10:01:56.165Z,63.50
2019-03-01T10:04:23.632Z,64.34
2019-03-01T10:06:51.072Z,65.04
2019-03-01T10:09:18.505Z,66.07
2019-03-01T10:11:45.973Z,65.40
2019-03-01T10:14:13.465Z,66.00
2019-03-01T10:16:40.954Z,65.79
2019-03-01T10:19:08.465Z,65.52
2019-03-01T10:21:35.931Z,65.88
2019-03-01T10:24:03.510Z,65.73
2019-03-01T10:26:30.925Z,68.08
2019-03-01T10:28:58.388Z,67.84
2019-03-01T10:31:25.885Z,67.01
2019-03-01T10:33:53.329Z,67.13
2019-03-01T10:36:20.785Z,66.87
2019-03-01T10:38:48.358Z,67.23
2019-03-01T10:41:15.833Z,67.38
2019-03-01T10:43:43.586Z,66.46
2019-03-01T10:46:11.033Z,65.64
2019-03-01T10:48:38.551Z,66.04
2019-03-01T10:51:06.049Z,66.16
2019-03-01T10:53:33.465Z,66.76
2019-03-01T10:56:00.945Z,66.78
2019-03-01T10:58:28.465Z,67.82
2019-03-01T11:00:55.905Z,67.53
2019-03-01T11:03:23.335Z,68.47
2019-03-01T11:05:52.978Z,68.85
2019-03-01T11:08:20.397Z,69.12
2019-03-01T11:10:47.865Z,70.21
2019-03-01T11:13:15.765Z,71.07
2019-03-01T11:15:43.287Z,72.10
2019-03-01T11:18:10.933Z,72.65
2019-03-01T11:20:38.445Z,73.19
2019-03-01T11:23:05.949Z,73.39
2019-03-01T11:25:33.395Z,73.91
2019-03-01T11:28:00.986Z,74.52
2019-03-01T11:30:29.289Z,74.39
2019-03-01T11:32:56.752Z,76.13
2019-03-01T11:35:24.253Z,74.80
2019-03-01T11:37:51.728Z,76.04
2019-03-01T11:40:27.623Z,78.23
2019-03-01T11:42:55.214Z,78.45
2019-03-01T11:45:23.189Z,81.53
2019-03-01T11:47:50.816Z,82.22
2019-03-01T11:50:20.265Z,83.63
2019-03-01T11:52:47.765Z,84.33
2019-03-01T11:55:15.546Z,83.79
2019-03-01T11:57:43.188Z,83.43
2019-03-01T12:00:13.521Z,83.60
2019-03-01T12:02:40.977Z,84.35
2019-03-01T12:05:09.290Z,86.01
2019-03-01T12:07:36.769Z,85.54
2019-03-01T12:10:04.958Z,84.97
2019-03-01T12:12:32.486Z,85.30
2019-03-01T12:14:59.964Z,85.72
2019-03-01T12:17:27.433Z,87.08
2019-03-01T12:19:54.905Z,87.18
2019-03-01T12:22:22.446Z,87.26
2019-03-01T12:24:49.966Z,86.23
2019-03-01T12:27:17.455Z,86.00
2019-03-01T12:29:45.045Z,86.94
2019-03-01T12:32:12.535Z,85.78
2019-03-01T12:34:39.997Z,85.20
2019-03-01T12:37:07.493Z,85.91
2019-03-01T12:39:34.948Z,87.01
2019-03-01T12:42:02.445Z,86.85
2019-03-01T12:44:32.295Z,86.40
2019-03-01T12:46:59.777Z,86.53
2019-03-01T12:49:27.685Z,86.25
2019-03-01T12:51:55.273Z,86.39
2019-03-01T12:54:22.799Z,86.69
2019-03-01T12:56:50.317Z,86.73
2019-03-01T12:59:17.846Z,83.87
2019-03-01T13:01:45.331Z,85.63
2019-03-01T13:04:15.689Z,84.63
2019-03-01T13:06:43.211Z,80.95
2019-03-01T13:09:14.210Z,84.36
2019-03-01T13:11:41.701Z,84.35
2019-03-01T13:14:09.305Z,85.29
2019-03-01T13:16:36.787Z,86.10
2019-03-01T13:19:04.258Z,85.35
2019-03-01T13:21:31.785Z,85.38
2019-03-01T13:23:59.275Z,86.59
2019-03-01T13:26:26.807Z,85.59
2019-03-01T13:28:54.309Z,85.05
2019-03-01T13:31:21.995Z,85.21
2019-03-01T13:33:49.559Z,85.00
2019-03-01T13:36:17.189Z,85.27
2019-03-01T13:38:44.725Z,86.57
2019-03-01T13:41:12.765Z,84.88
2019-03-01T13:43:40.315Z,84.26
2019-03-01T13:46:07.976Z,84.86
2019-03-01T13:48:35.663Z,85.47
2019-03-01T13:51:03.288Z,84.17
2019-03-01T13:53:33.284Z,85.51
2019-03-01T13:56:01.131Z,84.50
2019-03-01T13:58:29.058Z,82.96
2019-03-01T14:00:56.778Z,84.85
2019-03-01T14:03:27.478Z,84.29
2019-03-01T14:05:54.834Z,84.73
2019-03-01T14:08:23.507Z,84.65
2019-03-01T14:10:51.523Z,84.72
2019-03-01T14:13:19.510Z,84.32
2019-03-01T14:15:47.506Z,85.17
2019-03-01T14:18:15.774Z,85.41
2019-03-01T14:20:43.551Z,83.98
2019-03-01T14:23:11.065Z,83.65
2019-03-01T14:25:41.685Z,83.61
2019-03-01T14:28:08.269Z,84.52
2019-03-01T14:30:36.072Z,83.02
2019-03-01T14:33:03.687Z,83.67
2019-03-01T14:35:31.408Z,84.36
2019-03-01T14:37:59.020Z,84.75
2019-03-01T14:40:26.667Z,86.18
2019-03-01T14:42:54.372Z,85.87
2019-03-01T14:45:25.420Z,82.58
2019-03-01T14:47:53.079Z,83.54
2019-03-01T14:50:22.102Z,83.69
2019-03-01T14:52:53.202Z,81.53
2019-03-01T14:55:23.095Z,84.94
2019-03-01T14:58:03.092Z,82.84
2019-03-01T15:00:35.010Z,85.22
2019-03-01T15:03:16.037Z,84.04
2019-03-01T15:05:41.966Z,85.77
2019-03-01T15:08:09.145Z,80.25
2019-03-01T15:10:37.087Z,81.83
2019-03-01T15:13:05.121Z,85.08
2019-03-01T15:15:33.237Z,84.86
2019-03-01T15:18:01.049Z,86.16
2019-03-01T15:20:29.014Z,85.89
2019-03-01T15:22:57.056Z,86.16
2019-03-01T15:25:25.276Z,86.43
2019-03-01T15:27:53.302Z,84.33
2019-03-01T15:30:23.088Z,83.17
2019-03-01T15:32:52.513Z,81.44
2019-03-01T15:35:20.649Z,83.81
2019-03-01T15:37:48.636Z,85.62
2019-03-01T15:40:16.625Z,85.66
2019-03-01T15:42:44.466Z,86.30
2019-03-01T15:45:12.547Z,86.47
2019-03-01T15:47:40.683Z,86.96
2019-03-01T15:50:09.207Z,86.85
2019-03-01T15:52:37.518Z,85.75
2019-03-01T15:55:07.828Z,87.26
2019-03-01T15:57:36.005Z,87.12
2019-03-01T16:00:04.911Z,88.14
2019-03-01T16:02:34.086Z,87.99
2019-03-01T16:05:02.109Z,87.82
2019-03-01T16:07:32.342Z,87.17
2019-03-01T16:10:01.270Z,87.38
2019-03-01T16:12:32.412Z,87.89
2019-03-01T16:15:00.586Z,88.62
2019-03-01T16:17:28.970Z,89.01
2019-03-01T16:19:56.877Z,89.11
2019-03-01T16:22:24.935Z,88.63
2019-03-01T16:24:52.993Z,89.06
2019-03-01T16:27:20.973Z,89.09
2019-03-01T16:29:51.811Z,88.79
2019-03-01T16:32:19.770Z,89.10
2019-03-01T16:34:47.825Z,89.80
2019-03-01T16:37:15.946Z,89.90
2019-03-01T16:39:44.077Z,90.12
2019-03-01T16:42:14.628Z,89.59
2019-03-01T16:44:44.777Z,89.56
2019-03-01T16:47:11.924Z,89.16
2019-03-01T16:49:40.090Z,89.79
2019-03-01T16:52:08.217Z,90.29
2019-03-01T16:54:36.193Z,90.55
2019-03-01T16:57:04.177Z,90.70
2019-03-01T16:59:32.239Z,90.80
2019-03-01T17:02:06.336Z,90.91
2019-03-01T17:04:30.239Z,90.86
2019-03-01T17:06:58.334Z,90.71
2019-03-01T17:09:26.290Z,90.78
2019-03-01T17:11:54.372Z,90.24
2019-03-01T17:14:22.454Z,89.62
2019-03-01T17:16:50.509Z,90.39
2019-03-01T17:19:20.488Z,90.45
2019-03-01T17:21:51.153Z,90.38
2019-03-01T17:24:19.933Z,90.39
2019-03-01T17:26:47.986Z,89.70
2019-03-01T17:29:17.751Z,89.72
2019-03-01T17:31:45.885Z,90.45
2019-03-01T17:34:13.914Z,90.75
2019-03-01T17:36:42.433Z,90.82
2019-03-01T17:39:10.425Z,91.00
2019-03-01T17:41:38.464Z,91.33
2019-03-01T17:44:08.524Z,91.13
2019-03-01T17:46:36.785Z,90.81
2019-03-01T17:49:04.825Z,90.92
2019-03-01T17:51:32.957Z,90.94
2019-03-01T17:54:01.104Z,90.93
2019-03-01T17:56:29.599Z,90.88
2019-03-01T17:58:57.476Z,91.14
2019-03-01T18:01:25.621Z,91.44
2019-03-01T18:03:53.646Z,91.55
2019-03-01T18:06:21.740Z,91.87
2019-03-01T18:08:50.356Z,91.60
2019-03-01T18:11:18.426Z,91.46
2019-03-01T18:13:46.647Z,91.06
2019-03-01T18:16:14.685Z,90.85
2019-03-01T18:18:48.725Z,90.97
2019-03-01T18:21:13.973Z,90.73
2019-03-01T18:23:43.134Z,91.00
2019-03-01T18:26:11.414Z,91.40
2019-03-01T18:28:39.606Z,91.43
2019-03-01T18:31:07.820Z,91.33
2019-03-01T18:33:36.067Z,91.36
2019-03-01T18:36:04.086Z,91.00
2019-03-01T18:38:32.470Z,91.07
2019-03-01T18:41:01.500Z,91.82
2019-03-01T18:43:29.649Z,91.43
2019-03-01T18:45:57.728Z,91.28
2019-03-01T18:48:26.171Z,91.27
2019-03-01T18:50:55.265Z,91.34
2019-03-01T18:53:25.033Z,91.58
2019-03-01T18:55:53.785Z,91.68
2019-03-01T18:58:21.793Z,91.65
2019-03-01T19:00:50.086Z,91.73
2019-03-01T19:03:18.502Z,91.94
2019-03-01T19:05:47.827Z,92.23
2019-03-01T19:08:15.788Z,92.07
2019-03-01T19:10:54.005Z,91.92
2019-03-01T19:13:16.005Z,91.75
2019-03-01T19:15:44.153Z,91.77
2019-03-01T19:18:17.020Z,91.83
2019-03-01T19:20:47.902Z,92.12
2019-03-01T19:23:16.849Z,92.34
2019-03-01T19:25:45.570Z,92.54
2019-03-01T19:28:13.846Z,92.90
2019-03-01T19:30:41.982Z,92.98
2019-03-01T19:33:10.084Z,93.17
2019-03-01T19:35:41.237Z,93.09
2019-03-01T19:38:09.342Z,92.94
2019-03-01T19:40:37.443Z,92.70
2019-03-01T19:43:06.885Z,92.58
2019-03-01T19:45:37.594Z,92.50
2019-03-01T19:48:07.914Z,92.22
2019-03-01T19:50:38.616Z,91.98
2019-03-01T19:53:06.775Z,91.75
2019-03-01T19:55:34.843Z,92.19
2019-03-01T19:58:02.957Z,92.48
2019-03-01T20:00:32.602Z,92.39
2019-03-01T20:03:01.368Z,92.52
2019-03-01T20:05:31.667Z,92.35
2019-03-01T20:07:59.678Z,91.96
2019-03-01T20:10:27.807Z,90.47
2019-03-01T20:12:56.701Z,89.81
2019-03-01T20:15:35.785Z,89.86
2019-03-01T20:18:06.653Z,90.19
2019-03-01T20:20:34.367Z,90.16
2019-03-01T20:23:05.285Z,89.74
2019-03-01T20:25:35.485Z,89.23
2019-03-01T20:28:03.593Z,89.41
2019-03-01T20:30:31.828Z,89.01
2019-03-01T20:32:59.921Z,89.80
2019-03-01T20:35:28.088Z,88.03
2019-03-01T20:37:56.216Z,86.68
2019-03-01T20:40:26.717Z,88.24
2019-03-01T20:43:00.497Z,89.85
2019-03-01T20:45:29.901Z,89.72
2019-03-01T20:47:57.440Z,89.74
2019-03-01T20:50:25.660Z,90.14
2019-03-01T20:52:53.804Z,89.73
2019-03-01T20:55:23.832Z,90.22
2019-03-01T20:57:51.855Z,90.45
2019-03-01T21:00:22.554Z,90.63
2019-03-01T21:02:51.456Z,90.91
2019-03-01T21:05:19.697Z,91.07
2019-03-01T21:07:53.666Z,91.28
2019-03-01T21:10:20.071Z,91.42
2019-03-01T21:12:48.136Z,90.82
2019-03-01T21:15:17.028Z,90.96
2019-03-01T21:17:46.459Z,90.86
2019-03-01T21:20:15.909Z,91.29
2019-03-01T21:22:44.267Z,91.42
2019-03-01T21:25:13.781Z,91.46
2019-03-01T21:27:42.560Z,91.66
2019-03-01T21:30:16.412Z,91.68
2019-03-01T21:32:47.002Z,91.78
2019-03-01T21:35:16.761Z,91.91
2019-03-01T21:37:45.131Z,92.33
2019-03-01T21:40:13.289Z,92.18
2019-03-01T21:42:41.353Z,92.25
2019-03-01T21:45:11.059Z,92.29
2019-03-01T21:47:39.135Z,92.32
2019-03-01T21:50:07.853Z,92.41
2019-03-01T21:52:37.058Z,92.54
2019-03-01T21:55:06.344Z,92.93
2019-03-01T21:57:34.406Z,92.79
2019-03-01T22:00:02.291Z,92.66
2019-03-01T22:02:32.623Z,92.68
2019-03-01T22:05:00.576Z,92.46
2019-03-01T22:07:28.432Z,92.52
2019-03-01T22:09:59.342Z,92.45
2019-03-01T22:12:26.391Z,92.27
2019-03-01T22:14:54.281Z,92.08
2019-03-01T22:17:22.278Z,92.59
2019-03-01T22:19:52.135Z,93.10
2019-03-01T22:22:19.605Z,93.18
2019-03-01T22:24:47.067Z,93.05
2019-03-01T22:27:14.565Z,92.91
2019-03-01T22:29:43.607Z,92.69
2019-03-01T22:32:11.390Z,93.07
2019-03-01T22:34:38.905Z,92.83
2019-03-01T22:37:06.365Z,92.74
2019-03-01T22:39:33.865Z,92.87
2019-03-01T22:42:01.341Z,92.77
2019-03-01T22:44:28.820Z,92.54
2019-03-01T22:46:57.904Z,92.21
2019-03-01T22:49:28.595Z,92.33
2019-03-01T22:51:55.232Z,92.55
2019-03-01T22:54:22.687Z,92.67
2019-03-01T22:56:50.255Z,92.77
2019-03-01T22:59:17.737Z,92.95
2019-03-01T23:01:50.706Z,93.00
2019-03-01T23:04:18.187Z,92.96
2019-03-01T23:06:47.629Z,93.05
2019-03-01T23:09:15.467Z,93.06
2019-03-01T23:11:42.925Z,93.11
2019-03-01T23:14:10.405Z,93.15
2019-03-01T23:16:37.917Z,93.38
2019-03-01T23:19:05.405Z,93.65
2019-03-01T23:21:35.970Z,93.66
2019-03-01T23:24:02.279Z,93.38
2019-03-01T23:26:29.885Z,93.62
2019-03-01T23:28:57.288Z,93.72
2019-03-01T23:31:25.054Z,93.88
2019-03-01T23:33:52.485Z,93.58
2019-03-01T23:36:19.953Z,93.63
2019-03-01T23:38:50.144Z,93.93
2019-03-01T23:41:16.847Z,94.00
2019-03-01T23:43:44.324Z,93.92
2019-03-01T23:46:11.751Z,93.69
2019-03-01T23:48:39.225Z,93.74
2019-03-01T23:51:10.470Z,93.69
2019-03-01T23:53:36.081Z,93.65
2019-03-01T23:56:03.593Z,93.53
2019-03-01T23:58:31.072Z,93.82
